sensor_id;sensor_type;location;lat;lon;timestamp;P1;durP1;ratioP1;P2;durP2;ratioP2
70138;SDS011;57507;43.056;0.150;2023-06-22T00:00:29;2.03;;;0.85;;
70138;SDS011;57507;43.056;0.150;2023-06-22T00:02:56;1.02;;;0.77;;
70138;SDS011;57507;43.056;0.150;2023-06-22T00:05:22;1.38;;;0.70;;
70138;SDS011;57507;43.056;0.150;2023-06-22T00:07:48;1.40;;;1.00;;
70138;SDS011;57507;43.056;0.150;2023-06-22T00:10:14;0.90;;;0.70;;
70138;SDS011;57507;43.056;0.150;2023-06-22T00:12:40;2.47;;;1.10;;
70138;SDS011;57507;43.056;0.150;2023-06-22T00:15:06;1.13;;;0.95;;
70138;SDS011;57507;43.056;0.150;2023-06-22T00:17:32;2.75;;;1.10;;
70138;SDS011;57507;43.056;0.150;2023-06-22T00:19:58;1.17;;;0.90;;
70138;SDS011;57507;43.056;0.150;2023-06-22T00:22:25;1.85;;;1.10;;
70138;SDS011;57507;43.056;0.150;2023-06-22T00:24:53;1.63;;;0.98;;
70138;SDS011;57507;43.056;0.150;2023-06-22T00:27:20;1.25;;;0.93;;
70138;SDS011;57507;43.056;0.150;2023-06-22T00:29:46;1.63;;;1.02;;
70138;SDS011;57507;43.056;0.150;2023-06-22T00:32:12;1.40;;;1.10;;
70138;SDS011;57507;43.056;0.150;2023-06-22T00:34:38;3.00;;;0.90;;
70138;SDS011;57507;43.056;0.150;2023-06-22T00:37:04;2.40;;;0.93;;
70138;SDS011;57507;43.056;0.150;2023-06-22T00:39:30;1.27;;;0.90;;
70138;SDS011;57507;43.056;0.150;2023-06-22T00:41:58;2.58;;;1.65;;
70138;SDS011;57507;43.056;0.150;2023-06-22T00:44:24;1.50;;;0.95;;
70138;SDS011;57507;43.056;0.150;2023-06-22T00:46:54;0.75;;;0.75;;
70138;SDS011;57507;43.056;0.150;2023-06-22T00:49:20;2.40;;;1.00;;
70138;SDS011;57507;43.056;0.150;2023-06-22T00:51:46;1.85;;;0.80;;
70138;SDS011;57507;43.056;0.150;2023-06-22T00:54:12;2.15;;;0.90;;
70138;SDS011;57507;43.056;0.150;2023-06-22T00:56:39;1.67;;;0.93;;
70138;SDS011;57507;43.056;0.150;2023-06-22T00:59:06;1.50;;;1.00;;
70138;SDS011;57507;43.056;0.150;2023-06-22T01:01:32;1.27;;;0.98;;
70138;SDS011;57507;43.056;0.150;2023-06-22T01:03:59;1.65;;;0.80;;
70138;SDS011;57507;43.056;0.150;2023-06-22T01:06:26;1.33;;;0.98;;
70138;SDS011;57507;43.056;0.150;2023-06-22T01:09:00;2.42;;;0.73;;
70138;SDS011;57507;43.056;0.150;2023-06-22T01:11:37;2.22;;;0.80;;
70138;SDS011;57507;43.056;0.150;2023-06-22T01:14:10;1.80;;;1.20;;
70138;SDS011;57507;43.056;0.150;2023-06-22T01:16:39;1.67;;;1.00;;
70138;SDS011;57507;43.056;0.150;2023-06-22T01:19:54;1.60;;;1.05;;
70138;SDS011;57507;43.056;0.150;2023-06-22T01:21:53;1.10;;;0.80;;
70138;SDS011;57507;43.056;0.150;2023-06-22T01:29:25;1.73;;;1.20;;
70138;SDS011;57507;43.056;0.150;2023-06-22T01:31:52;4.00;;;1.17;;
70138;SDS011;57507;43.056;0.150;2023-06-22T01:34:20;2.60;;;1.35;;
70138;SDS011;57507;43.056;0.150;2023-06-22T01:36:47;1.45;;;1.00;;
70138;SDS011;57507;43.056;0.150;2023-06-22T01:39:13;1.95;;;0.98;;
70138;SDS011;57507;43.056;0.150;2023-06-22T01:41:39;1.83;;;1.27;;
70138;SDS011;57507;43.056;0.150;2023-06-22T01:44:07;2.00;;;1.23;;
70138;SDS011;57507;43.056;0.150;2023-06-22T01:46:34;2.20;;;1.23;;
70138;SDS011;57507;43.056;0.150;2023-06-22T01:49:01;2.45;;;1.30;;
70138;SDS011;57507;43.056;0.150;2023-06-22T01:51:27;1.70;;;1.00;;
70138;SDS011;57507;43.056;0.150;2023-06-22T01:53:53;1.48;;;1.08;;
70138;SDS011;57507;43.056;0.150;2023-06-22T01:56:20;2.08;;;1.27;;
70138;SDS011;57507;43.056;0.150;2023-06-22T01:58:57;2.45;;;1.15;;
70138;SDS011;57507;43.056;0.150;2023-06-22T02:01:25;2.17;;;1.20;;
70138;SDS011;57507;43.056;0.150;2023-06-22T02:03:57;2.15;;;1.50;;
70138;SDS011;57507;43.056;0.150;2023-06-22T02:06:30;2.22;;;1.30;;
70138;SDS011;57507;43.056;0.150;2023-06-22T02:09:01;2.92;;;1.10;;
70138;SDS011;57507;43.056;0.150;2023-06-22T02:11:28;2.05;;;1.20;;
70138;SDS011;57507;43.056;0.150;2023-06-22T02:13:54;2.30;;;1.75;;
70138;SDS011;57507;43.056;0.150;2023-06-22T02:16:21;2.00;;;1.13;;
70138;SDS011;57507;43.056;0.150;2023-06-22T02:18:48;2.63;;;1.30;;
70138;SDS011;57507;43.056;0.150;2023-06-22T02:21:20;3.00;;;1.45;;
70138;SDS011;57507;43.056;0.150;2023-06-22T02:23:46;1.20;;;1.02;;
70138;SDS011;57507;43.056;0.150;2023-06-22T02:26:12;2.58;;;1.80;;
70138;SDS011;57507;43.056;0.150;2023-06-22T02:28:38;3.13;;;1.40;;
70138;SDS011;57507;43.056;0.150;2023-06-22T02:31:04;2.72;;;1.42;;
70138;SDS011;57507;43.056;0.150;2023-06-22T02:33:30;3.13;;;1.70;;
70138;SDS011;57507;43.056;0.150;2023-06-22T02:35:56;2.40;;;1.67;;
70138;SDS011;57507;43.056;0.150;2023-06-22T02:38:22;3.75;;;2.10;;
70138;SDS011;57507;43.056;0.150;2023-06-22T02:40:49;3.50;;;1.80;;
70138;SDS011;57507;43.056;0.150;2023-06-22T02:43:15;2.08;;;1.45;;
70138;SDS011;57507;43.056;0.150;2023-06-22T02:45:41;2.22;;;1.52;;
70138;SDS011;57507;43.056;0.150;2023-06-22T02:48:07;1.92;;;1.20;;
70138;SDS011;57507;43.056;0.150;2023-06-22T02:50:33;2.92;;;1.77;;
70138;SDS011;57507;43.056;0.150;2023-06-22T02:52:59;2.58;;;1.60;;
70138;SDS011;57507;43.056;0.150;2023-06-22T02:55:25;2.78;;;1.52;;
70138;SDS011;57507;43.056;0.150;2023-06-22T02:57:51;2.70;;;1.50;;
70138;SDS011;57507;43.056;0.150;2023-06-22T03:00:18;1.73;;;1.30;;
70138;SDS011;57507;43.056;0.150;2023-06-22T03:02:45;3.00;;;1.58;;
70138;SDS011;57507;43.056;0.150;2023-06-22T03:05:11;2.45;;;1.42;;
70138;SDS011;57507;43.056;0.150;2023-06-22T03:07:43;1.85;;;1.20;;
70138;SDS011;57507;43.056;0.150;2023-06-22T03:10:09;2.45;;;1.30;;
70138;SDS011;57507;43.056;0.150;2023-06-22T03:12:39;1.63;;;1.23;;
70138;SDS011;57507;43.056;0.150;2023-06-22T03:15:05;2.35;;;1.50;;
70138;SDS011;57507;43.056;0.150;2023-06-22T03:17:32;1.95;;;1.30;;
70138;SDS011;57507;43.056;0.150;2023-06-22T03:19:58;2.58;;;1.73;;
70138;SDS011;57507;43.056;0.150;2023-06-22T03:22:24;2.10;;;1.30;;
70138;SDS011;57507;43.056;0.150;2023-06-22T03:24:50;2.17;;;1.40;;
70138;SDS011;57507;43.056;0.150;2023-06-22T03:27:16;2.05;;;1.33;;
70138;SDS011;57507;43.056;0.150;2023-06-22T03:29:43;1.40;;;1.30;;
70138;SDS011;57507;43.056;0.150;2023-06-22T03:32:09;2.13;;;1.50;;
70138;SDS011;57507;43.056;0.150;2023-06-22T03:34:35;3.30;;;1.48;;
70138;SDS011;57507;43.056;0.150;2023-06-22T03:37:02;3.35;;;1.30;;
70138;SDS011;57507;43.056;0.150;2023-06-22T03:39:28;1.92;;;1.40;;
70138;SDS011;57507;43.056;0.150;2023-06-22T03:41:54;1.30;;;1.00;;
70138;SDS011;57507;43.056;0.150;2023-06-22T03:44:20;1.88;;;1.30;;
70138;SDS011;57507;43.056;0.150;2023-06-22T03:46:46;2.70;;;1.58;;
70138;SDS011;57507;43.056;0.150;2023-06-22T03:49:12;2.63;;;1.33;;
70138;SDS011;57507;43.056;0.150;2023-06-22T03:51:38;1.98;;;1.23;;
70138;SDS011;57507;43.056;0.150;2023-06-22T03:54:04;3.08;;;1.48;;
70138;SDS011;57507;43.056;0.150;2023-06-22T03:56:30;3.22;;;1.73;;
70138;SDS011;57507;43.056;0.150;2023-06-22T03:58:56;5.03;;;1.33;;
70138;SDS011;57507;43.056;0.150;2023-06-22T04:01:23;2.10;;;1.20;;
70138;SDS011;57507;43.056;0.150;2023-06-22T04:03:49;3.25;;;1.48;;
70138;SDS011;57507;43.056;0.150;2023-06-22T04:06:15;2.03;;;1.30;;
70138;SDS011;57507;43.056;0.150;2023-06-22T04:08:41;3.00;;;1.33;;
70138;SDS011;57507;43.056;0.150;2023-06-22T04:11:07;5.20;;;1.27;;
70138;SDS011;57507;43.056;0.150;2023-06-22T04:13:33;2.28;;;1.23;;
70138;SDS011;57507;43.056;0.150;2023-06-22T04:15:59;1.83;;;1.20;;
70138;SDS011;57507;43.056;0.150;2023-06-22T04:18:26;2.72;;;1.30;;
70138;SDS011;57507;43.056;0.150;2023-06-22T04:20:52;2.13;;;1.40;;
70138;SDS011;57507;43.056;0.150;2023-06-22T04:23:18;2.78;;;1.73;;
70138;SDS011;57507;43.056;0.150;2023-06-22T04:25:44;2.03;;;1.58;;
70138;SDS011;57507;43.056;0.150;2023-06-22T04:28:10;2.22;;;1.13;;
70138;SDS011;57507;43.056;0.150;2023-06-22T04:30:37;3.42;;;1.38;;
70138;SDS011;57507;43.056;0.150;2023-06-22T04:33:12;2.22;;;1.30;;
70138;SDS011;57507;43.056;0.150;2023-06-22T04:35:38;3.47;;;1.50;;
70138;SDS011;57507;43.056;0.150;2023-06-22T04:38:06;2.78;;;1.55;;
70138;SDS011;57507;43.056;0.150;2023-06-22T04:40:32;2.72;;;1.50;;
70138;SDS011;57507;43.056;0.150;2023-06-22T04:42:59;1.70;;;1.00;;
70138;SDS011;57507;43.056;0.150;2023-06-22T04:45:27;1.88;;;1.13;;
70138;SDS011;57507;43.056;0.150;2023-06-22T04:47:56;5.07;;;1.60;;
70138;SDS011;57507;43.056;0.150;2023-06-22T04:50:23;2.38;;;1.23;;
70138;SDS011;57507;43.056;0.150;2023-06-22T04:52:49;3.67;;;1.27;;
70138;SDS011;57507;43.056;0.150;2023-06-22T04:55:16;2.22;;;1.70;;
70138;SDS011;57507;43.056;0.150;2023-06-22T04:57:43;2.15;;;1.40;;
70138;SDS011;57507;43.056;0.150;2023-06-22T05:00:14;2.75;;;1.70;;
70138;SDS011;57507;43.056;0.150;2023-06-22T05:02:42;2.78;;;1.35;;
70138;SDS011;57507;43.056;0.150;2023-06-22T05:05:09;2.95;;;1.33;;
70138;SDS011;57507;43.056;0.150;2023-06-22T05:07:42;3.05;;;1.77;;
70138;SDS011;57507;43.056;0.150;2023-06-22T05:10:09;1.98;;;1.48;;
70138;SDS011;57507;43.056;0.150;2023-06-22T05:12:36;3.45;;;1.38;;
70138;SDS011;57507;43.056;0.150;2023-06-22T05:15:02;2.08;;;1.42;;
70138;SDS011;57507;43.056;0.150;2023-06-22T05:17:29;2.28;;;1.10;;
70138;SDS011;57507;43.056;0.150;2023-06-22T05:19:55;2.78;;;1.30;;
70138;SDS011;57507;43.056;0.150;2023-06-22T05:22:21;1.98;;;1.38;;
70138;SDS011;57507;43.056;0.150;2023-06-22T05:24:47;2.08;;;1.48;;
70138;SDS011;57507;43.056;0.150;2023-06-22T05:27:13;1.83;;;1.15;;
70138;SDS011;57507;43.056;0.150;2023-06-22T05:29:39;1.90;;;1.40;;
70138;SDS011;57507;43.056;0.150;2023-06-22T05:32:06;2.00;;;1.23;;
70138;SDS011;57507;43.056;0.150;2023-06-22T05:34:32;2.15;;;1.40;;
70138;SDS011;57507;43.056;0.150;2023-06-22T05:36:58;2.67;;;1.48;;
70138;SDS011;57507;43.056;0.150;2023-06-22T05:39:24;3.83;;;1.48;;
70138;SDS011;57507;43.056;0.150;2023-06-22T05:41:51;2.85;;;1.33;;
70138;SDS011;57507;43.056;0.150;2023-06-22T05:44:18;3.22;;;1.30;;
70138;SDS011;57507;43.056;0.150;2023-06-22T05:46:44;1.52;;;1.25;;
70138;SDS011;57507;43.056;0.150;2023-06-22T05:49:11;2.17;;;1.38;;
70138;SDS011;57507;43.056;0.150;2023-06-22T05:51:38;2.20;;;1.30;;
70138;SDS011;57507;43.056;0.150;2023-06-22T05:54:04;2.63;;;1.20;;
70138;SDS011;57507;43.056;0.150;2023-06-22T05:56:30;1.98;;;1.40;;
70138;SDS011;57507;43.056;0.150;2023-06-22T05:58:56;2.38;;;1.50;;
70138;SDS011;57507;43.056;0.150;2023-06-22T06:01:22;2.60;;;1.33;;
70138;SDS011;57507;43.056;0.150;2023-06-22T06:03:51;2.08;;;1.35;;
70138;SDS011;57507;43.056;0.150;2023-06-22T06:06:17;2.80;;;1.25;;
70138;SDS011;57507;43.056;0.150;2023-06-22T06:08:46;2.33;;;1.02;;
70138;SDS011;57507;43.056;0.150;2023-06-22T06:11:12;1.95;;;1.50;;
70138;SDS011;57507;43.056;0.150;2023-06-22T06:13:38;2.30;;;1.50;;
70138;SDS011;57507;43.056;0.150;2023-06-22T06:16:04;1.30;;;1.10;;
70138;SDS011;57507;43.056;0.150;2023-06-22T06:18:30;2.55;;;1.20;;
70138;SDS011;57507;43.056;0.150;2023-06-22T06:20:56;2.17;;;1.45;;
70138;SDS011;57507;43.056;0.150;2023-06-22T06:23:22;2.47;;;1.20;;
70138;SDS011;57507;43.056;0.150;2023-06-22T06:25:48;2.28;;;1.27;;
70138;SDS011;57507;43.056;0.150;2023-06-22T06:28:14;3.05;;;1.20;;
70138;SDS011;57507;43.056;0.150;2023-06-22T06:30:40;1.98;;;1.30;;
70138;SDS011;57507;43.056;0.150;2023-06-22T06:33:07;2.35;;;1.25;;
70138;SDS011;57507;43.056;0.150;2023-06-22T06:35:33;1.88;;;1.08;;
70138;SDS011;57507;43.056;0.150;2023-06-22T06:37:59;1.48;;;1.02;;
70138;SDS011;57507;43.056;0.150;2023-06-22T06:40:25;1.77;;;1.30;;
70138;SDS011;57507;43.056;0.150;2023-06-22T06:42:51;1.70;;;1.20;;
70138;SDS011;57507;43.056;0.150;2023-06-22T06:45:19;1.70;;;1.15;;
70138;SDS011;57507;43.056;0.150;2023-06-22T06:47:47;1.90;;;1.30;;
70138;SDS011;57507;43.056;0.150;2023-06-22T06:50:13;2.88;;;0.98;;
70138;SDS011;57507;43.056;0.150;2023-06-22T06:52:39;1.35;;;1.08;;
70138;SDS011;57507;43.056;0.150;2023-06-22T06:55:06;2.35;;;1.20;;
70138;SDS011;57507;43.056;0.150;2023-06-22T06:57:33;1.70;;;1.40;;
70138;SDS011;57507;43.056;0.150;2023-06-22T06:59:59;2.35;;;1.27;;
70138;SDS011;57507;43.056;0.150;2023-06-22T07:02:25;3.40;;;2.13;;
70138;SDS011;57507;43.056;0.150;2023-06-22T07:04:55;3.00;;;1.17;;
70138;SDS011;57507;43.056;0.150;2023-06-22T07:07:21;2.92;;;1.23;;
70138;SDS011;57507;43.056;0.150;2023-06-22T07:09:47;2.72;;;0.98;;
70138;SDS011;57507;43.056;0.150;2023-06-22T07:12:13;1.65;;;1.00;;
70138;SDS011;57507;43.056;0.150;2023-06-22T07:14:39;1.73;;;1.17;;
70138;SDS011;57507;43.056;0.150;2023-06-22T07:17:05;2.35;;;1.30;;
70138;SDS011;57507;43.056;0.150;2023-06-22T07:19:32;1.88;;;1.02;;
70138;SDS011;57507;43.056;0.150;2023-06-22T07:21:58;1.48;;;0.95;;
70138;SDS011;57507;43.056;0.150;2023-06-22T07:24:24;1.40;;;1.02;;
70138;SDS011;57507;43.056;0.150;2023-06-22T07:26:51;1.83;;;0.95;;
70138;SDS011;57507;43.056;0.150;2023-06-22T07:29:17;1.85;;;1.20;;
70138;SDS011;57507;43.056;0.150;2023-06-22T07:31:44;1.98;;;1.38;;
70138;SDS011;57507;43.056;0.150;2023-06-22T07:34:11;1.73;;;1.27;;
70138;SDS011;57507;43.056;0.150;2023-06-22T07:36:37;1.98;;;1.30;;
70138;SDS011;57507;43.056;0.150;2023-06-22T07:39:03;1.80;;;1.17;;
70138;SDS011;57507;43.056;0.150;2023-06-22T07:41:29;1.77;;;1.10;;
70138;SDS011;57507;43.056;0.150;2023-06-22T07:43:56;1.92;;;1.23;;
70138;SDS011;57507;43.056;0.150;2023-06-22T07:46:22;1.25;;;1.10;;
70138;SDS011;57507;43.056;0.150;2023-06-22T07:48:48;1.70;;;0.98;;
70138;SDS011;57507;43.056;0.150;2023-06-22T07:51:14;1.95;;;1.17;;
70138;SDS011;57507;43.056;0.150;2023-06-22T07:53:40;1.50;;;0.93;;
70138;SDS011;57507;43.056;0.150;2023-06-22T07:56:07;1.73;;;1.10;;
70138;SDS011;57507;43.056;0.150;2023-06-22T07:58:33;2.60;;;1.38;;
70138;SDS011;57507;43.056;0.150;2023-06-22T08:00:59;1.30;;;0.98;;
70138;SDS011;57507;43.056;0.150;2023-06-22T08:03:25;2.95;;;1.40;;
70138;SDS011;57507;43.056;0.150;2023-06-22T08:05:51;3.17;;;1.58;;
70138;SDS011;57507;43.056;0.150;2023-06-22T08:08:17;2.95;;;1.73;;
70138;SDS011;57507;43.056;0.150;2023-06-22T08:10:43;4.20;;;1.77;;
70138;SDS011;57507;43.056;0.150;2023-06-22T08:13:09;2.60;;;1.67;;
70138;SDS011;57507;43.056;0.150;2023-06-22T08:15:36;2.75;;;1.27;;
70138;SDS011;57507;43.056;0.150;2023-06-22T08:18:02;2.08;;;1.50;;
70138;SDS011;57507;43.056;0.150;2023-06-22T08:20:28;3.95;;;1.65;;
70138;SDS011;57507;43.056;0.150;2023-06-22T08:22:55;3.55;;;1.85;;
70138;SDS011;57507;43.056;0.150;2023-06-22T08:25:23;3.35;;;1.85;;
70138;SDS011;57507;43.056;0.150;2023-06-22T08:27:49;3.00;;;1.42;;
70138;SDS011;57507;43.056;0.150;2023-06-22T08:30:15;3.47;;;1.80;;
70138;SDS011;57507;43.056;0.150;2023-06-22T08:32:43;2.70;;;1.70;;
70138;SDS011;57507;43.056;0.150;2023-06-22T08:35:09;2.08;;;1.58;;
70138;SDS011;57507;43.056;0.150;2023-06-22T08:37:36;5.10;;;1.75;;
70138;SDS011;57507;43.056;0.150;2023-06-22T08:40:04;3.72;;;1.80;;
70138;SDS011;57507;43.056;0.150;2023-06-22T08:42:31;4.45;;;1.70;;
70138;SDS011;57507;43.056;0.150;2023-06-22T08:44:57;4.22;;;2.17;;
70138;SDS011;57507;43.056;0.150;2023-06-22T08:47:23;2.72;;;1.80;;
70138;SDS011;57507;43.056;0.150;2023-06-22T08:49:49;3.50;;;1.63;;
70138;SDS011;57507;43.056;0.150;2023-06-22T08:52:16;3.15;;;1.73;;
70138;SDS011;57507;43.056;0.150;2023-06-22T08:54:43;2.67;;;1.63;;
70138;SDS011;57507;43.056;0.150;2023-06-22T08:57:09;2.78;;;2.13;;
70138;SDS011;57507;43.056;0.150;2023-06-22T08:59:35;2.85;;;2.10;;
70138;SDS011;57507;43.056;0.150;2023-06-22T09:02:01;2.20;;;1.77;;
70138;SDS011;57507;43.056;0.150;2023-06-22T09:04:27;3.65;;;1.55;;
70138;SDS011;57507;43.056;0.150;2023-06-22T09:06:53;2.97;;;1.90;;
70138;SDS011;57507;43.056;0.150;2023-06-22T09:09:21;2.80;;;1.60;;
70138;SDS011;57507;43.056;0.150;2023-06-22T09:11:47;2.13;;;1.48;;
70138;SDS011;57507;43.056;0.150;2023-06-22T09:14:13;1.73;;;1.23;;
70138;SDS011;57507;43.056;0.150;2023-06-22T09:16:39;2.22;;;1.60;;
70138;SDS011;57507;43.056;0.150;2023-06-22T09:19:05;2.53;;;1.58;;
70138;SDS011;57507;43.056;0.150;2023-06-22T09:21:31;2.58;;;1.83;;
70138;SDS011;57507;43.056;0.150;2023-06-22T09:23:57;3.70;;;1.90;;
70138;SDS011;57507;43.056;0.150;2023-06-22T09:26:24;4.63;;;2.13;;
70138;SDS011;57507;43.056;0.150;2023-06-22T09:28:50;2.50;;;1.70;;
70138;SDS011;57507;43.056;0.150;2023-06-22T09:31:16;2.92;;;1.77;;
70138;SDS011;57507;43.056;0.150;2023-06-22T09:33:42;4.60;;;2.00;;
70138;SDS011;57507;43.056;0.150;2023-06-22T09:36:09;2.35;;;1.85;;
70138;SDS011;57507;43.056;0.150;2023-06-22T09:38:38;1.98;;;1.63;;
70138;SDS011;57507;43.056;0.150;2023-06-22T09:41:04;2.00;;;1.50;;
70138;SDS011;57507;43.056;0.150;2023-06-22T09:43:31;2.03;;;1.73;;
70138;SDS011;57507;43.056;0.150;2023-06-22T09:46:00;3.25;;;1.90;;
70138;SDS011;57507;43.056;0.150;2023-06-22T09:48:27;4.18;;;2.13;;
70138;SDS011;57507;43.056;0.150;2023-06-22T09:50:54;4.65;;;1.77;;
70138;SDS011;57507;43.056;0.150;2023-06-22T09:53:20;3.70;;;1.95;;
70138;SDS011;57507;43.056;0.150;2023-06-22T09:55:46;4.55;;;2.20;;
70138;SDS011;57507;43.056;0.150;2023-06-22T09:58:12;2.97;;;1.75;;
70138;SDS011;57507;43.056;0.150;2023-06-22T10:00:38;4.50;;;1.85;;
70138;SDS011;57507;43.056;0.150;2023-06-22T10:03:06;1.80;;;1.63;;
70138;SDS011;57507;43.056;0.150;2023-06-22T10:05:32;2.13;;;1.60;;
70138;SDS011;57507;43.056;0.150;2023-06-22T10:07:58;4.40;;;2.00;;
70138;SDS011;57507;43.056;0.150;2023-06-22T10:10:24;3.75;;;1.70;;
70138;SDS011;57507;43.056;0.150;2023-06-22T10:12:57;4.10;;;1.75;;
70138;SDS011;57507;43.056;0.150;2023-06-22T10:15:23;2.53;;;1.77;;
70138;SDS011;57507;43.056;0.150;2023-06-22T10:17:51;3.97;;;1.80;;
70138;SDS011;57507;43.056;0.150;2023-06-22T10:20:18;3.95;;;1.70;;
70138;SDS011;57507;43.056;0.150;2023-06-22T10:22:45;2.70;;;1.73;;
70138;SDS011;57507;43.056;0.150;2023-06-22T10:25:12;2.95;;;1.63;;
70138;SDS011;57507;43.056;0.150;2023-06-22T10:27:38;3.05;;;1.70;;
70138;SDS011;57507;43.056;0.150;2023-06-22T10:30:05;2.00;;;1.70;;
70138;SDS011;57507;43.056;0.150;2023-06-22T10:32:31;3.30;;;1.75;;
70138;SDS011;57507;43.056;0.150;2023-06-22T10:34:58;3.95;;;1.92;;
70138;SDS011;57507;43.056;0.150;2023-06-22T10:37:24;3.28;;;2.00;;
70138;SDS011;57507;43.056;0.150;2023-06-22T10:39:50;4.65;;;1.48;;
70138;SDS011;57507;43.056;0.150;2023-06-22T10:42:16;3.03;;;1.80;;
70138;SDS011;57507;43.056;0.150;2023-06-22T10:44:42;1.98;;;1.30;;
70138;SDS011;57507;43.056;0.150;2023-06-22T10:47:09;2.83;;;1.92;;
70138;SDS011;57507;43.056;0.150;2023-06-22T10:49:37;3.05;;;1.50;;
70138;SDS011;57507;43.056;0.150;2023-06-22T10:52:03;2.33;;;1.60;;
70138;SDS011;57507;43.056;0.150;2023-06-22T10:54:29;1.80;;;1.25;;
70138;SDS011;57507;43.056;0.150;2023-06-22T10:56:55;3.42;;;1.55;;
70138;SDS011;57507;43.056;0.150;2023-06-22T10:59:21;4.60;;;1.88;;
70138;SDS011;57507;43.056;0.150;2023-06-22T11:01:48;4.00;;;2.30;;
70138;SDS011;57507;43.056;0.150;2023-06-22T11:04:14;1.77;;;1.58;;
70138;SDS011;57507;43.056;0.150;2023-06-22T11:06:42;3.63;;;1.90;;
70138;SDS011;57507;43.056;0.150;2023-06-22T11:09:08;2.40;;;1.98;;
70138;SDS011;57507;43.056;0.150;2023-06-22T11:11:34;4.43;;;2.65;;
70138;SDS011;57507;43.056;0.150;2023-06-22T11:14:00;2.13;;;1.75;;
70138;SDS011;57507;43.056;0.150;2023-06-22T11:16:27;2.53;;;1.95;;
70138;SDS011;57507;43.056;0.150;2023-06-22T11:18:53;3.05;;;2.13;;
70138;SDS011;57507;43.056;0.150;2023-06-22T11:21:19;3.83;;;1.83;;
70138;SDS011;57507;43.056;0.150;2023-06-22T11:23:45;1.98;;;1.60;;
70138;SDS011;57507;43.056;0.150;2023-06-22T11:26:11;3.88;;;1.73;;
70138;SDS011;57507;43.056;0.150;2023-06-22T11:28:37;3.10;;;2.13;;
70138;SDS011;57507;43.056;0.150;2023-06-22T11:31:03;3.42;;;2.20;;
70138;SDS011;57507;43.056;0.150;2023-06-22T11:33:29;2.33;;;1.75;;
70138;SDS011;57507;43.056;0.150;2023-06-22T11:35:55;3.53;;;2.20;;
70138;SDS011;57507;43.056;0.150;2023-06-22T11:38:22;2.53;;;1.50;;
70138;SDS011;57507;43.056;0.150;2023-06-22T11:40:48;3.13;;;1.95;;
70138;SDS011;57507;43.056;0.150;2023-06-22T11:43:14;3.58;;;2.00;;
70138;SDS011;57507;43.056;0.150;2023-06-22T11:45:40;4.03;;;2.28;;
70138;SDS011;57507;43.056;0.150;2023-06-22T11:48:06;3.17;;;1.67;;
70138;SDS011;57507;43.056;0.150;2023-06-22T11:50:32;3.25;;;2.15;;
70138;SDS011;57507;43.056;0.150;2023-06-22T11:53:01;4.07;;;1.98;;
70138;SDS011;57507;43.056;0.150;2023-06-22T11:55:28;3.15;;;1.80;;
70138;SDS011;57507;43.056;0.150;2023-06-22T11:57:54;4.78;;;1.92;;
70138;SDS011;57507;43.056;0.150;2023-06-22T12:00:21;3.15;;;1.77;;
70138;SDS011;57507;43.056;0.150;2023-06-22T12:02:49;3.10;;;2.00;;
70138;SDS011;57507;43.056;0.150;2023-06-22T12:05:17;2.35;;;2.00;;
70138;SDS011;57507;43.056;0.150;2023-06-22T12:07:43;2.35;;;1.70;;
70138;SDS011;57507;43.056;0.150;2023-06-22T12:10:09;2.58;;;1.88;;
70138;SDS011;57507;43.056;0.150;2023-06-22T12:12:35;2.90;;;1.60;;
70138;SDS011;57507;43.056;0.150;2023-06-22T12:15:01;2.38;;;1.35;;
70138;SDS011;57507;43.056;0.150;2023-06-22T12:17:29;3.35;;;1.75;;
70138;SDS011;57507;43.056;0.150;2023-06-22T12:19:55;2.78;;;1.98;;
70138;SDS011;57507;43.056;0.150;2023-06-22T12:22:21;2.92;;;1.85;;
70138;SDS011;57507;43.056;0.150;2023-06-22T12:24:47;2.63;;;1.65;;
70138;SDS011;57507;43.056;0.150;2023-06-22T12:27:13;2.90;;;1.58;;
70138;SDS011;57507;43.056;0.150;2023-06-22T12:29:41;2.30;;;1.45;;
70138;SDS011;57507;43.056;0.150;2023-06-22T12:32:07;2.30;;;1.77;;
70138;SDS011;57507;43.056;0.150;2023-06-22T12:34:33;2.85;;;1.77;;
70138;SDS011;57507;43.056;0.150;2023-06-22T12:36:59;3.08;;;1.40;;
70138;SDS011;57507;43.056;0.150;2023-06-22T12:39:26;2.42;;;1.77;;
70138;SDS011;57507;43.056;0.150;2023-06-22T12:41:52;3.05;;;1.88;;
70138;SDS011;57507;43.056;0.150;2023-06-22T12:44:18;1.98;;;1.40;;
70138;SDS011;57507;43.056;0.150;2023-06-22T12:46:44;2.55;;;1.42;;
70138;SDS011;57507;43.056;0.150;2023-06-22T12:49:10;4.57;;;2.22;;
70138;SDS011;57507;43.056;0.150;2023-06-22T12:51:39;2.33;;;1.80;;
70138;SDS011;57507;43.056;0.150;2023-06-22T12:54:06;3.10;;;1.60;;
70138;SDS011;57507;43.056;0.150;2023-06-22T12:56:32;3.10;;;1.65;;
70138;SDS011;57507;43.056;0.150;2023-06-22T12:58:58;1.70;;;1.60;;
70138;SDS011;57507;43.056;0.150;2023-06-22T13:01:27;3.72;;;2.00;;
70138;SDS011;57507;43.056;0.150;2023-06-22T13:03:53;2.30;;;1.52;;
70138;SDS011;57507;43.056;0.150;2023-06-22T13:06:19;4.00;;;1.80;;
70138;SDS011;57507;43.056;0.150;2023-06-22T13:08:45;2.40;;;1.75;;
70138;SDS011;57507;43.056;0.150;2023-06-22T13:11:11;3.22;;;2.22;;
70138;SDS011;57507;43.056;0.150;2023-06-22T13:13:38;2.78;;;2.10;;
70138;SDS011;57507;43.056;0.150;2023-06-22T13:16:04;2.33;;;1.67;;
70138;SDS011;57507;43.056;0.150;2023-06-22T13:18:30;2.22;;;1.52;;
70138;SDS011;57507;43.056;0.150;2023-06-22T13:20:56;4.10;;;1.90;;
70138;SDS011;57507;43.056;0.150;2023-06-22T13:23:23;3.38;;;1.85;;
70138;SDS011;57507;43.056;0.150;2023-06-22T13:25:49;2.58;;;1.88;;
70138;SDS011;57507;43.056;0.150;2023-06-22T13:28:15;2.70;;;1.70;;
70138;SDS011;57507;43.056;0.150;2023-06-22T13:30:41;2.47;;;1.92;;
70138;SDS011;57507;43.056;0.150;2023-06-22T13:33:08;2.28;;;1.80;;
70138;SDS011;57507;43.056;0.150;2023-06-22T13:35:34;3.25;;;1.70;;
70138;SDS011;57507;43.056;0.150;2023-06-22T13:38:00;2.60;;;1.48;;
70138;SDS011;57507;43.056;0.150;2023-06-22T13:40:26;2.47;;;1.65;;
70138;SDS011;57507;43.056;0.150;2023-06-22T13:42:52;1.90;;;1.38;;
70138;SDS011;57507;43.056;0.150;2023-06-22T13:45:18;1.50;;;1.30;;
70138;SDS011;57507;43.056;0.150;2023-06-22T13:47:45;2.13;;;1.30;;
70138;SDS011;57507;43.056;0.150;2023-06-22T13:50:11;2.92;;;1.58;;
70138;SDS011;57507;43.056;0.150;2023-06-22T13:52:38;2.30;;;1.55;;
70138;SDS011;57507;43.056;0.150;2023-06-22T13:55:04;1.50;;;1.20;;
70138;SDS011;57507;43.056;0.150;2023-06-22T13:57:31;3.67;;;1.30;;
70138;SDS011;57507;43.056;0.150;2023-06-22T13:59:58;5.18;;;1.55;;
70138;SDS011;57507;43.056;0.150;2023-06-22T14:02:25;2.40;;;1.40;;
70138;SDS011;57507;43.056;0.150;2023-06-22T14:04:52;2.40;;;1.30;;
70138;SDS011;57507;43.056;0.150;2023-06-22T14:07:18;3.30;;;1.50;;
70138;SDS011;57507;43.056;0.150;2023-06-22T14:09:45;3.95;;;1.73;;
70138;SDS011;57507;43.056;0.150;2023-06-22T14:12:12;2.78;;;1.50;;
70138;SDS011;57507;43.056;0.150;2023-06-22T14:14:38;2.80;;;1.90;;
70138;SDS011;57507;43.056;0.150;2023-06-22T14:17:04;2.90;;;1.70;;
70138;SDS011;57507;43.056;0.150;2023-06-22T14:19:30;4.88;;;2.10;;
70138;SDS011;57507;43.056;0.150;2023-06-22T14:21:57;4.60;;;1.60;;
70138;SDS011;57507;43.056;0.150;2023-06-22T14:24:23;3.85;;;1.65;;
70138;SDS011;57507;43.056;0.150;2023-06-22T14:26:49;2.53;;;1.90;;
70138;SDS011;57507;43.056;0.150;2023-06-22T14:29:15;1.92;;;1.63;;
70138;SDS011;57507;43.056;0.150;2023-06-22T14:31:44;2.47;;;1.50;;
70138;SDS011;57507;43.056;0.150;2023-06-22T14:34:10;2.05;;;1.52;;
70138;SDS011;57507;43.056;0.150;2023-06-22T14:36:36;3.13;;;1.80;;
70138;SDS011;57507;43.056;0.150;2023-06-22T14:39:02;4.47;;;1.77;;
70138;SDS011;57507;43.056;0.150;2023-06-22T14:41:29;3.45;;;1.73;;
70138;SDS011;57507;43.056;0.150;2023-06-22T14:43:56;2.65;;;1.77;;
70138;SDS011;57507;43.056;0.150;2023-06-22T14:46:22;2.90;;;1.65;;
70138;SDS011;57507;43.056;0.150;2023-06-22T14:48:48;2.92;;;1.90;;